Time;durP1;ratioP1;P1;durP2;ratioP2;P2;SDS_P1;SDS_P2;PMS_P1;PMS_P2;Temp;Humidity;BMP_temperature;BMP_pressure;BME280_temperature;BME280_humidity;BME280_pressure;Samples;Min_cycle;Max_cycle;Signal;HPM_P1;HPM_P2
2024/03/06 00:01:17;;;;;;;35.27;23.10;;;;;;;;;;4986904;28;20191;-72
2024/03/06 00:03:42;;;;;;;34.30;22.07;;;;;;;;;;4982528;28;20206;-71
2024/03/06 00:06:08;;;;;;;35.17;22.67;;;;;;;;;;4989690;28;20319;-72
2024/03/06 00:08:33;;;;;;;41.03;24.27;;;;;;;;;;4987574;28;20582;-72
2024/03/06 00:10:59;;;;;;;35.97;23.03;;;;;;;;;;4991007;28;20179;-74
2024/03/06 00:13:24;;;;;;;35.40;22.63;;;;;;;;;;4992730;28;20184;-72
2024/03/06 00:15:49;;;;;;;34.80;22.43;;;;;;;;;;4991619;28;20215;-72
2024/03/06 00:18:14;;;;;;;33.93;21.47;;;;;;;;;;4991136;28;20191;-72
2024/03/06 00:20:42;;;;;;;41.13;23.67;;;;;;;;;;4991712;28;20175;-73
2024/03/06 00:23:07;;;;;;;36.50;23.67;;;;;;;;;;4992191;28;20195;-72
2024/03/06 00:25:32;;;;;;;37.13;23.20;;;;;;;;;;4989642;28;20188;-71
2024/03/06 00:27:57;;;;;;;42.20;24.97;;;;;;;;;;4971484;28;20203;-71
2024/03/06 00:30:22;;;;;;;40.97;24.50;;;;;;;;;;4986825;28;20684;-71
2024/03/06 00:32:48;;;;;;;40.83;23.13;;;;;;;;;;4987423;28;20238;-72
2024/03/06 00:35:13;;;;;;;41.30;24.37;;;;;;;;;;4991362;28;20178;-72
2024/03/06 00:37:38;;;;;;;39.73;22.77;;;;;;;;;;4988612;28;20697;-72
2024/03/06 00:40:03;;;;;;;36.77;23.33;;;;;;;;;;4974009;28;20184;-73
2024/03/06 00:42:29;;;;;;;41.17;23.67;;;;;;;;;;4991521;28;20219;-72
2024/03/06 00:44:54;;;;;;;38.83;23.47;;;;;;;;;;4992151;28;20547;-72
2024/03/06 00:47:21;;;;;;;32.67;23.07;;;;;;;;;;4992032;28;20282;-72
2024/03/06 00:49:46;;;;;;;37.77;22.43;;;;;;;;;;4973769;28;20175;-73
2024/03/06 00:52:11;;;;;;;39.07;23.73;;;;;;;;;;4991740;28;20210;-72
2024/03/06 00:54:37;;;;;;;41.90;24.83;;;;;;;;;;4986211;28;20184;-72
2024/03/06 00:57:02;;;;;;;38.70;25.47;;;;;;;;;;4990040;28;20556;-71
2024/03/06 00:59:28;;;;;;;33.80;23.57;;;;;;;;;;4991480;28;20639;-72
2024/03/06 01:01:55;;;;;;;43.70;26.17;;;;;;;;;;4974411;28;20230;-71
2024/03/06 01:04:21;;;;;;;41.93;25.70;;;;;;;;;;4974438;28;20217;-72
2024/03/06 01:06:46;;;;;;;38.97;23.60;;;;;;;;;;4992012;28;20191;-71
2024/03/06 01:09:11;;;;;;;40.37;23.93;;;;;;;;;;4988078;28;20264;-71
2024/03/06 01:11:36;;;;;;;36.87;23.03;;;;;;;;;;4991838;28;20186;-71
2024/03/06 01:14:03;;;;;;;36.07;24.33;;;;;;;;;;4992372;28;20180;-71
2024/03/06 01:16:29;;;;;;;39.77;24.30;;;;;;;;;;4984018;28;20264;-71
2024/03/06 01:18:54;;;;;;;38.60;25.00;;;;;;;;;;4974085;28;20656;-72
2024/03/06 01:21:19;;;;;;;38.67;24.03;;;;;;;;;;4994286;28;20176;-71
2024/03/06 01:23:45;;;;;;;35.57;24.03;;;;;;;;;;4993999;28;20386;-71
2024/03/06 01:26:11;;;;;;;39.97;24.63;;;;;;;;;;4991718;28;20250;-72
2024/03/06 01:28:36;;;;;;;43.70;25.30;;;;;;;;;;4985944;28;20176;-72
2024/03/06 01:31:02;;;;;;;41.53;25.03;;;;;;;;;;4983492;28;20184;-72
2024/03/06 01:33:27;;;;;;;38.10;25.23;;;;;;;;;;4982382;28;20548;-71
2024/03/06 01:35:52;;;;;;;47.47;27.23;;;;;;;;;;4989415;28;20295;-72
2024/03/06 01:38:17;;;;;;;43.77;27.30;;;;;;;;;;4983154;28;20183;-71
2024/03/06 01:40:43;;;;;;;43.00;26.20;;;;;;;;;;4972043;28;20222;-73
2024/03/06 01:43:17;;;;;;;44.20;27.53;;;;;;;;;;4989236;28;20192;-72
2024/03/06 01:45:42;;;;;;;44.73;26.97;;;;;;;;;;4989523;28;20207;-72
2024/03/06 01:48:08;;;;;;;41.97;27.13;;;;;;;;;;4988318;28;20176;-72
2024/03/06 01:50:33;;;;;;;48.07;27.63;;;;;;;;;;4971428;28;20222;-72
2024/03/06 01:52:59;;;;;;;46.40;26.47;;;;;;;;;;4987601;28;20259;-72
2024/03/06 01:55:24;;;;;;;47.33;26.23;;;;;;;;;;4988858;28;20270;-72
2024/03/06 01:57:49;;;;;;;46.53;29.97;;;;;;;;;;4977771;28;20515;-72
2024/03/06 02:00:16;;;;;;;41.07;27.37;;;;;;;;;;4991344;28;20183;-72
2024/03/06 02:02:42;;;;;;;41.17;26.27;;;;;;;;;;4985582;28;20195;-72
2024/03/06 02:05:08;;;;;;;42.70;26.93;;;;;;;;;;4985927;28;20209;-71
2024/03/06 02:07:33;;;;;;;39.43;26.37;;;;;;;;;;4971535;28;20233;-71
2024/03/06 02:09:58;;;;;;;44.13;25.40;;;;;;;;;;4985321;28;20271;-72
2024/03/06 02:12:24;;;;;;;39.77;24.70;;;;;;;;;;4991403;28;20254;-72
2024/03/06 02:14:49;;;;;;;40.87;25.40;;;;;;;;;;4970263;28;20612;-71
2024/03/06 02:17:14;;;;;;;42.03;26.63;;;;;;;;;;5004074;22;20334;-71
2024/03/06 02:19:40;;;;;;;45.30;26.60;;;;;;;;;;5010375;28;20187;-71
2024/03/06 02:22:06;;;;;;;40.00;24.43;;;;;;;;;;5002373;28;20317;-71
2024/03/06 02:24:31;;;;;;;40.47;24.87;;;;;;;;;;4996100;28;20262;-71
2024/03/06 02:26:57;;;;;;;42.80;26.40;;;;;;;;;;4986672;28;20204;-71
2024/03/06 02:29:25;;;;;;;39.13;25.40;;;;;;;;;;4989133;28;20187;-69
2024/03/06 02:31:50;;;;;;;39.93;25.77;;;;;;;;;;4971933;28;20174;-69
2024/03/06 02:34:15;;;;;;;40.03;24.57;;;;;;;;;;4984298;28;20180;-70
2024/03/06 02:36:40;;;;;;;40.17;25.17;;;;;;;;;;4981160;28;20550;-70
2024/03/06 02:39:08;;;;;;;37.70;23.87;;;;;;;;;;4990669;28;20234;-70
2024/03/06 02:41:34;;;;;;;44.10;24.80;;;;;;;;;;4973711;28;20186;-70
2024/03/06 02:43:59;;;;;;;38.73;24.83;;;;;;;;;;4993129;28;20211;-70
2024/03/06 02:46:24;;;;;;;39.37;24.90;;;;;;;;;;4985280;28;20208;-70
2024/03/06 02:48:50;;;;;;;41.00;25.47;;;;;;;;;;4983709;28;20583;-70
2024/03/06 02:51:19;;;;;;;37.83;23.67;;;;;;;;;;4975589;28;20690;-70
2024/03/06 02:53:44;;;;;;;43.80;25.53;;;;;;;;;;4992407;28;20187;-70
2024/03/06 02:56:15;;;;;;;41.23;24.90;;;;;;;;;;4992257;28;20199;-70
2024/03/06 02:58:40;;;;;;;40.90;25.80;;;;;;;;;;4985700;28;20266;-70
2024/03/06 03:01:05;;;;;;;39.73;23.70;;;;;;;;;;4984962;28;20271;-70
2024/03/06 03:03:30;;;;;;;35.57;22.93;;;;;;;;;;4982601;28;20215;-70
2024/03/06 03:05:56;;;;;;;38.30;23.57;;;;;;;;;;4982526;28;20647;-70
2024/03/06 03:08:22;;;;;;;36.87;23.03;;;;;;;;;;4990728;28;20176;-70
2024/03/06 03:10:47;;;;;;;36.97;21.97;;;;;;;;;;4990854;28;20176;-70
2024/03/06 03:13:13;;;;;;;35.73;22.63;;;;;;;;;;4984215;28;20187;-70
2024/03/06 03:15:39;;;;;;;42.63;23.73;;;;;;;;;;4988614;28;20190;-70
2024/03/06 03:18:05;;;;;;;36.33;23.33;;;;;;;;;;4973800;28;20720;-70
2024/03/06 03:20:30;;;;;;;34.87;21.90;;;;;;;;;;4979332;28;20566;-70
2024/03/06 03:22:56;;;;;;;33.97;21.37;;;;;;;;;;4985722;28;20212;-69
2024/03/06 03:25:21;;;;;;;41.40;22.10;;;;;;;;;;4989873;28;20167;-70
2024/03/06 03:27:47;;;;;;;36.73;22.80;;;;;;;;;;4971965;28;20200;-70
2024/03/06 03:30:13;;;;;;;32.90;21.50;;;;;;;;;;4993272;28;20266;-70
2024/03/06 03:32:38;;;;;;;34.27;22.20;;;;;;;;;;4992999;28;20258;-70
2024/03/06 03:35:05;;;;;;;36.47;23.30;;;;;;;;;;4974216;28;20176;-70
2024/03/06 03:37:30;;;;;;;35.53;23.63;;;;;;;;;;4974393;28;20207;-70
2024/03/06 03:39:55;;;;;;;35.70;22.40;;;;;;;;;;4988014;28;20188;-70
2024/03/06 03:42:21;;;;;;;35.27;22.73;;;;;;;;;;4986788;28;20211;-70
2024/03/06 03:44:46;;;;;;;36.60;23.20;;;;;;;;;;4991833;28;20431;-70
2024/03/06 03:47:12;;;;;;;40.30;24.43;;;;;;;;;;4986044;28;20717;-70
2024/03/06 03:49:37;;;;;;;40.03;25.97;;;;;;;;;;4988449;28;20257;-70
2024/03/06 03:52:03;;;;;;;37.03;24.07;;;;;;;;;;4985832;28;20198;-69
2024/03/06 03:54:28;;;;;;;41.63;25.33;;;;;;;;;;4967686;28;20275;-70
2024/03/06 03:56:53;;;;;;;44.90;26.50;;;;;;;;;;4991655;28;20639;-70
2024/03/06 03:59:18;;;;;;;44.43;25.53;;;;;;;;;;4987194;28;20175;-70
2024/03/06 04:01:47;;;;;;;46.37;28.57;;;;;;;;;;4974799;28;20230;-70
2024/03/06 04:04:12;;;;;;;44.93;27.43;;;;;;;;;;4982639;28;20624;-70
2024/03/06 04:06:38;;;;;;;42.03;25.93;;;;;;;;;;4972631;28;20206;-70
2024/03/06 04:09:04;;;;;;;46.80;26.67;;;;;;;;;;4990783;28;20176;-70
2024/03/06 04:11:29;;;;;;;43.30;27.73;;;;;;;;;;4989495;28;20211;-70
2024/03/06 04:13:55;;;;;;;42.57;26.97;;;;;;;;;;4989789;28;20215;-70
2024/03/06 04:16:20;;;;;;;43.47;25.90;;;;;;;;;;4983496;28;20258;-70
2024/03/06 04:18:46;;;;;;;49.53;27.93;;;;;;;;;;4990015;28;20190;-69
2024/03/06 04:21:11;;;;;;;40.70;25.70;;;;;;;;;;4971201;28;20187;-70
2024/03/06 04:23:37;;;;;;;47.20;26.43;;;;;;;;;;4970096;28;20200;-70
2024/03/06 04:26:03;;;;;;;46.13;26.47;;;;;;;;;;4980935;28;20188;-70
2024/03/06 04:28:28;;;;;;;42.07;27.23;;;;;;;;;;4991092;28;20648;-70
2024/03/06 04:30:54;;;;;;;47.63;27.07;;;;;;;;;;4985536;28;20226;-70
2024/03/06 04:33:20;;;;;;;45.40;28.30;;;;;;;;;;4989995;28;20179;-70
2024/03/06 04:35:45;;;;;;;51.20;28.57;;;;;;;;;;4987952;28;20219;-70
2024/03/06 04:38:10;;;;;;;55.40;30.67;;;;;;;;;;4990891;28;20234;-70
2024/03/06 04:40:35;;;;;;;58.93;30.37;;;;;;;;;;4989975;28;20194;-69
2024/03/06 04:43:01;;;;;;;52.33;29.53;;;;;;;;;;4977271;28;20212;-69
2024/03/06 04:45:26;;;;;;;58.03;30.93;;;;;;;;;;4987862;28;20178;-69
2024/03/06 04:47:51;;;;;;;53.47;30.77;;;;;;;;;;4983836;28;20738;-69
2024/03/06 04:50:17;;;;;;;54.07;29.73;;;;;;;;;;4988162;28;20267;-70
2024/03/06 04:52:43;;;;;;;58.40;32.43;;;;;;;;;;4985887;28;20180;-70
2024/03/06 04:55:12;;;;;;;51.37;28.00;;;;;;;;;;4990285;28;20184;-69
2024/03/06 04:57:38;;;;;;;51.90;29.40;;;;;;;;;;4989045;28;20203;-69
2024/03/06 05:00:08;;;;;;;54.50;28.77;;;;;;;;;;4983471;28;20666;-69
2024/03/06 05:02:36;;;;;;;52.30;30.97;;;;;;;;;;4971897;28;20679;-69
2024/03/06 05:05:02;;;;;;;51.77;28.93;;;;;;;;;;4967293;28;20192;-69
2024/03/06 05:07:28;;;;;;;55.73;28.03;;;;;;;;;;4983104;28;20262;-70
2024/03/06 05:09:53;;;;;;;49.70;27.93;;;;;;;;;;4989488;28;20194;-69
2024/03/06 05:12:18;;;;;;;50.83;29.13;;;;;;;;;;4989419;28;20283;-69
2024/03/06 05:14:44;;;;;;;53.83;29.57;;;;;;;;;;4984787;28;20186;-70
2024/03/06 05:17:10;;;;;;;47.93;27.70;;;;;;;;;;4983546;28;20297;-70
2024/03/06 05:19:35;;;;;;;48.47;28.67;;;;;;;;;;4989373;28;20538;-70
2024/03/06 05:22:00;;;;;;;46.07;27.57;;;;;;;;;;4980389;28;20184;-70
2024/03/06 05:24:26;;;;;;;73.83;28.27;;;;;;;;;;4983664;28;20674;-69
2024/03/06 05:26:51;;;;;;;43.47;27.27;;;;;;;;;;4971532;28;20254;-69
2024/03/06 05:29:16;;;;;;;47.13;27.30;;;;;;;;;;4987885;28;20175;-69
2024/03/06 05:31:41;;;;;;;59.03;28.80;;;;;;;;;;4987684;28;20202;-69
2024/03/06 05:34:07;;;;;;;47.20;27.67;;;;;;;;;;4984966;28;20180;-69
2024/03/06 05:36:32;;;;;;;44.60;27.37;;;;;;;;;;4988150;28;20214;-69
2024/03/06 05:38:57;;;;;;;46.23;27.40;;;;;;;;;;4981831;28;20594;-69
2024/03/06 05:41:22;;;;;;;41.17;27.07;;;;;;;;;;4987076;28;20179;-69
2024/03/06 05:43:48;;;;;;;45.53;26.80;;;;;;;;;;4981921;28;20215;-70
2024/03/06 05:46:13;;;;;;;41.50;25.73;;;;;;;;;;4984867;28;20204;-69
2024/03/06 05:48:38;;;;;;;42.67;27.07;;;;;;;;;;4986644;28;21280;-70
2024/03/06 05:51:03;;;;;;;40.33;25.50;;;;;;;;;;4982138;28;20648;-70
2024/03/06 05:53:28;;;;;;;44.83;25.50;;;;;;;;;;4989021;28;20199;-70
2024/03/06 05:55:54;;;;;;;45.17;27.60;;;;;;;;;;4971683;28;20731;-69
2024/03/06 05:58:19;;;;;;;46.03;28.43;;;;;;;;;;4989750;28;20427;-69
2024/03/06 06:00:45;;;;;;;48.87;27.30;;;;;;;;;;4980085;28;20190;-69
2024/03/06 06:03:11;;;;;;;43.80;27.47;;;;;;;;;;4991277;28;20577;-69
2024/03/06 06:05:38;;;;;;;45.20;26.80;;;;;;;;;;4981448;28;20557;-70
2024/03/06 06:08:04;;;;;;;57.37;28.40;;;;;;;;;;4953524;28;21897;-69
2024/03/06 06:10:30;;;;;;;43.87;27.27;;;;;;;;;;4988723;28;20187;-70
2024/03/06 06:12:55;;;;;;;43.33;27.03;;;;;;;;;;4985816;28;20179;-70
2024/03/06 06:15:20;;;;;;;48.80;28.63;;;;;;;;;;4977451;28;20184;-70
2024/03/06 06:17:45;;;;;;;55.20;28.00;;;;;;;;;;4974862;28;20215;-70
2024/03/06 06:20:14;;;;;;;43.50;26.33;;;;;;;;;;4994475;28;20179;-70
2024/03/06 06:22:39;;;;;;;41.80;26.10;;;;;;;;;;4990956;28;20294;-69
2024/03/06 06:25:07;;;;;;;43.20;27.07;;;;;;;;;;4988477;28;20267;-70
2024/03/06 06:27:32;;;;;;;43.73;27.07;;;;;;;;;;4992853;28;20612;-71
2024/03/06 06:29:57;;;;;;;44.07;28.10;;;;;;;;;;4973416;28;20180;-70
2024/03/06 06:32:23;;;;;;;43.70;27.53;;;;;;;;;;4972573;28;20187;-70
2024/03/06 06:34:48;;;;;;;43.50;27.33;;;;;;;;;;4982323;28;20192;-70
2024/03/06 06:37:14;;;;;;;45.77;29.03;;;;;;;;;;4989989;28;20226;-70
2024/03/06 06:39:40;;;;;;;42.70;27.80;;;;;;;;;;4986895;28;20663;-70
2024/03/06 06:42:05;;;;;;;42.67;27.60;;;;;;;;;;4989480;28;20323;-70
2024/03/06 06:44:30;;;;;;;41.17;27.47;;;;;;;;;;4992941;28;20720;-70
2024/03/06 06:46:56;;;;;;;39.67;25.37;;;;;;;;;;4985402;28;20207;-69
2024/03/06 06:49:21;;;;;;;44.73;26.73;;;;;;;;;;4986424;28;20258;-70
2024/03/06 06:51:46;;;;;;;42.13;26.83;;;;;;;;;;4970622;28;20264;-70
2024/03/06 06:54:12;;;;;;;40.43;27.13;;;;;;;;;;4988334;28;20195;-69
2024/03/06 06:56:38;;;;;;;45.17;28.17;;;;;;;;;;4987252;28;20207;-70
2024/03/06 06:59:03;;;;;;;39.10;24.47;;;;;;;;;;4989940;28;20185;-69
2024/03/06 07:01:29;;;;;;;40.57;27.43;;;;;;;;;;4982254;28;20286;-70
2024/03/06 07:03:54;;;;;;;40.30;27.07;;;;;;;;;;4987321;28;20215;-69
2024/03/06 07:06:19;;;;;;;42.53;27.33;;;;;;;;;;4985889;28;20575;-69
2024/03/06 07:08:44;;;;;;;52.73;30.60;;;;;;;;;;4985958;28;20539;-70
2024/03/06 07:11:10;;;;;;;43.87;30.33;;;;;;;;;;4990209;28;20198;-69
2024/03/06 07:13:36;;;;;;;43.87;29.10;;;;;;;;;;4972964;28;20275;-70
2024/03/06 07:16:02;;;;;;;43.73;28.70;;;;;;;;;;4985510;28;20740;-69
2024/03/06 07:18:27;;;;;;;41.53;28.37;;;;;;;;;;4991341;28;20198;-70
2024/03/06 07:20:53;;;;;;;41.73;27.90;;;;;;;;;;4986000;28;20252;-70
2024/03/06 07:23:18;;;;;;;40.20;26.93;;;;;;;;;;4991169;28;20565;-70
2024/03/06 07:25:43;;;;;;;42.10;28.30;;;;;;;;;;4973386;28;20718;-69
2024/03/06 07:28:09;;;;;;;39.63;27.00;;;;;;;;;;4982271;28;20201;-70
2024/03/06 07:30:34;;;;;;;42.70;29.93;;;;;;;;;;4991069;28;20279;-69
2024/03/06 07:33:00;;;;;;;42.77;28.40;;;;;;;;;;4983777;28;20670;-70
2024/03/06 07:35:25;;;;;;;36.10;25.70;;;;;;;;;;4987395;28;20662;-69
2024/03/06 07:37:51;;;;;;;38.93;26.87;;;;;;;;;;4971465;28;20318;-70
2024/03/06 07:40:16;;;;;;;35.17;26.13;;;;;;;;;;4988013;28;20198;-70
2024/03/06 07:42:41;;;;;;;31.97;24.10;;;;;;;;;;4989016;28;20234;-70
2024/03/06 07:45:09;;;;;;;31.53;24.00;;;;;;;;;;4984433;28;20183;-69
2024/03/06 07:47:34;;;;;;;33.47;22.43;;;;;;;;;;4986550;28;20204;-70
2024/03/06 07:50:00;;;;;;;32.90;23.13;;;;;;;;;;4985239;28;20226;-70
2024/03/06 07:52:25;;;;;;;29.77;21.93;;;;;;;;;;4987728;28;20183;-70
2024/03/06 07:54:50;;;;;;;28.20;21.93;;;;;;;;;;4992887;28;20203;-69
2024/03/06 07:57:15;;;;;;;29.63;21.17;;;;;;;;;;4993080;28;20187;-70
2024/03/06 07:59:40;;;;;;;34.40;22.03;;;;;;;;;;4986483;28;20202;-69
2024/03/06 08:02:06;;;;;;;32.23;21.50;;;;;;;;;;4973036;28;20298;-70
2024/03/06 08:04:31;;;;;;;30.47;20.70;;;;;;;;;;4990094;28;20216;-69
2024/03/06 08:06:57;;;;;;;29.97;20.47;;;;;;;;;;4987187;28;20195;-70
2024/03/06 08:09:23;;;;;;;26.27;20.03;;;;;;;;;;4987415;28;20187;-69
2024/03/06 08:11:49;;;;;;;25.10;19.03;;;;;;;;;;4988214;28;20191;-70
2024/03/06 08:14:14;;;;;;;26.97;19.23;;;;;;;;;;4978026;28;20191;-69
2024/03/06 08:16:40;;;;;;;24.20;18.10;;;;;;;;;;4980904;28;20675;-70
2024/03/06 08:19:05;;;;;;;31.67;19.30;;;;;;;;;;4967410;28;20672;-70
2024/03/06 08:21:30;;;;;;;23.13;17.60;;;;;;;;;;4981524;28;20263;-70
2024/03/06 08:23:55;;;;;;;24.57;18.80;;;;;;;;;;4980905;28;20215;-70
2024/03/06 08:26:22;;;;;;;22.83;17.97;;;;;;;;;;4983047;28;20577;-70
2024/03/06 08:28:48;;;;;;;25.30;18.30;;;;;;;;;;4982246;28;20176;-70
2024/03/06 08:31:14;;;;;;;21.40;17.10;;;;;;;;;;4987555;28;20445;-70
2024/03/06 08:33:39;;;;;;;25.13;18.00;;;;;;;;;;4986350;28;20188;-71
2024/03/06 08:36:04;;;;;;;27.37;18.23;;;;;;;;;;4978555;28;20200;-71
2024/03/06 08:38:29;;;;;;;28.90;19.33;;;;;;;;;;4987492;28;20194;-71
2024/03/06 08:40:55;;;;;;;26.27;18.13;;;;;;;;;;4990817;28;20206;-70
2024/03/06 08:43:20;;;;;;;28.80;21.17;;;;;;;;;;4986021;28;20261;-71
2024/03/06 08:45:45;;;;;;;25.53;18.77;;;;;;;;;;4972127;28;20204;-71
2024/03/06 08:48:11;;;;;;;30.50;19.67;;;;;;;;;;4989479;28;20175;-70
2024/03/06 08:50:36;;;;;;;32.83;18.53;;;;;;;;;;4971631;28;20192;-70
2024/03/06 08:53:02;;;;;;;24.67;17.83;;;;;;;;;;4990641;28;20180;-70
2024/03/06 08:55:28;;;;;;;27.97;18.13;;;;;;;;;;4987970;28;20188;-71
2024/03/06 08:57:53;;;;;;;28.70;19.17;;;;;;;;;;4972566;28;20214;-71
2024/03/06 09:00:18;;;;;;;26.03;18.37;;;;;;;;;;4989982;28;20552;-71
2024/03/06 09:02:44;;;;;;;23.63;17.37;;;;;;;;;;4988987;28;20207;-70
2024/03/06 09:05:10;;;;;;;22.73;17.13;;;;;;;;;;4984550;28;20646;-71
2024/03/06 09:07:40;;;;;;;26.10;18.37;;;;;;;;;;4989758;28;20205;-71
2024/03/06 09:10:06;;;;;;;28.47;18.07;;;;;;;;;;4985770;28;20535;-70
2024/03/06 09:12:31;;;;;;;29.33;17.97;;;;;;;;;;4983109;28;20191;-70
2024/03/06 09:14:56;;;;;;;25.80;17.63;;;;;;;;;;4983582;28;20206;-71
2024/03/06 09:17:21;;;;;;;26.43;17.37;;;;;;;;;;4988932;28;20294;-71
2024/03/06 09:19:46;;;;;;;23.93;16.70;;;;;;;;;;4986216;28;20179;-70
2024/03/06 09:22:12;;;;;;;23.63;16.97;;;;;;;;;;4987016;28;20175;-71
2024/03/06 09:24:40;;;;;;;25.43;17.63;;;;;;;;;;4986207;28;20203;-71
2024/03/06 09:27:05;;;;;;;24.40;16.43;;;;;;;;;;4979574;28;20199;-70
2024/03/06 09:29:30;;;;;;;20.70;15.17;;;;;;;;;;4980782;28;20179;-70
2024/03/06 09:31:55;;;;;;;21.30;16.30;;;;;;;;;;4981201;28;20172;-71
2024/03/06 09:34:21;;;;;;;26.33;19.17;;;;;;;;;;4985426;28;20786;-70
2024/03/06 09:36:47;;;;;;;26.33;19.00;;;;;;;;;;4984602;28;20649;-70
2024/03/06 09:39:16;;;;;;;28.27;18.07;;;;;;;;;;4984411;28;20184;-70
2024/03/06 09:41:41;;;;;;;25.53;17.80;;;;;;;;;;4971786;28;20187;-70
2024/03/06 09:44:07;;;;;;;26.07;17.60;;;;;;;;;;4986380;28;20334;-70
2024/03/06 09:46:33;;;;;;;23.57;17.20;;;;;;;;;;4984582;28;20211;-70
2024/03/06 09:48:58;;;;;;;25.37;18.33;;;;;;;;;;4987206;28;20644;-70
2024/03/06 09:51:24;;;;;;;25.43;16.97;;;;;;;;;;4968977;28;20171;-70
2024/03/06 09:53:51;;;;;;;27.60;18.43;;;;;;;;;;4983986;28;20175;-70
2024/03/06 09:56:16;;;;;;;25.63;17.77;;;;;;;;;;4984083;28;20202;-70
2024/03/06 09:58:42;;;;;;;25.80;18.60;;;;;;;;;;4984872;28;20187;-70
2024/03/06 10:01:07;;;;;;;26.87;17.83;;;;;;;;;;4985749;28;20183;-70
2024/03/06 10:03:33;;;;;;;23.53;17.27;;;;;;;;;;4985450;28;20265;-71
2024/03/06 10:05:58;;;;;;;26.40;18.53;;;;;;;;;;4985213;28;20294;-71
2024/03/06 10:08:26;;;;;;;26.63;18.70;;;;;;;;;;4984493;28;20262;-71
2024/03/06 10:10:52;;;;;;;28.67;19.63;;;;;;;;;;4968408;28;20175;-71
2024/03/06 10:13:17;;;;;;;30.50;19.98;;;;;;;;;;4983564;28;20722;-71
2024/03/06 10:15:42;;;;;;;28.77;19.85;;;;;;;;;;4982846;28;20180;-70
2024/03/06 10:18:14;;;;;;;31.25;21.08;;;;;;;;;;4967521;28;20210;-71
2024/03/06 10:20:43;;;;;;;35.58;21.58;;;;;;;;;;4982656;28;20215;-70
2024/03/06 10:23:08;;;;;;;33.20;21.60;;;;;;;;;;4968904;28;20235;-70
2024/03/06 10:25:34;;;;;;;31.92;20.90;;;;;;;;;;4981915;28;20216;-71
2024/03/06 10:28:02;;;;;;;29.33;20.90;;;;;;;;;;4983406;28;20316;-71
2024/03/06 10:30:27;;;;;;;32.22;20.42;;;;;;;;;;4986120;28;20549;-71
2024/03/06 10:32:53;;;;;;;29.00;20.08;;;;;;;;;;4982566;28;20175;-70
2024/03/06 10:35:19;;;;;;;33.75;22.60;;;;;;;;;;4985471;28;20180;-70
2024/03/06 10:37:45;;;;;;;36.57;22.57;;;;;;;;;;4982763;28;20330;-71
2024/03/06 10:40:14;;;;;;;34.92;21.20;;;;;;;;;;4983640;28;20229;-71
2024/03/06 10:42:41;;;;;;;37.00;22.85;;;;;;;;;;4970372;28;20199;-70
2024/03/06 10:45:07;;;;;;;39.30;23.08;;;;;;;;;;4982787;28;20185;-71
2024/03/06 10:47:33;;;;;;;32.60;21.92;;;;;;;;;;4985576;28;20200;-71
2024/03/06 10:49:59;;;;;;;34.33;21.65;;;;;;;;;;4984617;28;20187;-70
2024/03/06 10:52:27;;;;;;;36.63;22.23;;;;;;;;;;4982017;28;20452;-70
2024/03/06 10:54:53;;;;;;;38.15;22.85;;;;;;;;;;4984529;28;20179;-71
2024/03/06 10:57:19;;;;;;;36.30;23.15;;;;;;;;;;4985452;28;20718;-70
2024/03/06 10:59:44;;;;;;;36.15;22.88;;;;;;;;;;4986141;28;20179;-70
2024/03/06 11:02:12;;;;;;;35.95;23.52;;;;;;;;;;4982944;28;20207;-70
2024/03/06 11:04:40;;;;;;;34.72;23.08;;;;;;;;;;4971520;28;20214;-70
2024/03/06 11:07:05;;;;;;;34.20;22.45;;;;;;;;;;4984512;28;20584;-70
2024/03/06 11:09:36;;;;;;;32.35;21.75;;;;;;;;;;4990914;28;20318;-70
2024/03/06 11:12:06;;;;;;;32.92;21.45;;;;;;;;;;4984255;28;20192;-70
2024/03/06 11:14:32;;;;;;;31.98;21.95;;;;;;;;;;4988890;28;20261;-70
2024/03/06 11:17:02;;;;;;;31.88;20.77;;;;;;;;;;4986136;28;20285;-71
2024/03/06 11:19:27;;;;;;;29.20;20.70;;;;;;;;;;4988352;28;20246;-70
2024/03/06 11:21:52;;;;;;;31.20;21.90;;;;;;;;;;4975546;28;20238;-70
2024/03/06 11:24:19;;;;;;;30.73;20.02;;;;;;;;;;4986054;28;20214;-70
2024/03/06 11:26:47;;;;;;;31.85;20.30;;;;;;;;;;4985358;28;20203;-70
2024/03/06 11:29:15;;;;;;;30.73;20.05;;;;;;;;;;4968463;28;20176;-71
2024/03/06 11:31:55;;;;;;;29.75;20.77;;;;;;;;;;4992248;28;20237;-71
2024/03/06 11:34:21;;;;;;;30.23;20.00;;;;;;;;;;4992842;28;20187;-70
2024/03/06 11:36:47;;;;;;;28.10;20.52;;;;;;;;;;4991121;28;20211;-71
2024/03/06 11:39:17;;;;;;;27.63;19.23;;;;;;;;;;4990057;28;20259;-71
2024/03/06 11:41:49;;;;;;;27.73;19.10;;;;;;;;;;4990480;28;20180;-71
2024/03/06 11:44:15;;;;;;;28.83;18.40;;;;;;;;;;4981301;28;20200;-71
2024/03/06 11:46:40;;;;;;;30.17;19.15;;;;;;;;;;4988103;28;20207;-71
2024/03/06 11:49:14;;;;;;;31.05;19.90;;;;;;;;;;4986612;28;20213;-71
2024/03/06 11:51:39;;;;;;;27.25;18.17;;;;;;;;;;4982967;28;20180;-71
2024/03/06 11:54:05;;;;;;;23.95;17.05;;;;;;;;;;4973015;28;20258;-70
2024/03/06 11:56:30;;;;;;;22.95;16.88;;;;;;;;;;4985743;28;20283;-70
2024/03/06 11:58:55;;;;;;;23.25;16.38;;;;;;;;;;4968283;28;20476;-71
2024/03/06 12:01:20;;;;;;;27.95;18.40;;;;;;;;;;4987619;28;20598;-70
2024/03/06 12:03:46;;;;;;;24.05;17.33;;;;;;;;;;4989559;28;20703;-71
2024/03/06 12:06:12;;;;;;;24.23;16.92;;;;;;;;;;4986134;28;20226;-71
2024/03/06 12:08:39;;;;;;;20.75;15.23;;;;;;;;;;4984687;28;20644;-70
2024/03/06 12:11:05;;;;;;;23.65;15.95;;;;;;;;;;4969799;28;20191;-71
2024/03/06 12:13:30;;;;;;;23.08;15.77;;;;;;;;;;4982336;28;20262;-71
2024/03/06 12:15:55;;;;;;;21.23;14.68;;;;;;;;;;4986360;28;20184;-69
2024/03/06 12:18:22;;;;;;;19.67;15.25;;;;;;;;;;4988218;28;20290;-72
2024/03/06 12:20:50;;;;;;;20.48;15.43;;;;;;;;;;4986377;28;20211;-71
2024/03/06 12:23:22;;;;;;;17.33;13.60;;;;;;;;;;4972188;28;20207;-69
2024/03/06 12:25:48;;;;;;;20.40;13.45;;;;;;;;;;4982917;28;20215;-71
2024/03/06 12:28:13;;;;;;;18.55;13.10;;;;;;;;;;4987878;28;20712;-71
2024/03/06 12:30:40;;;;;;;16.55;13.45;;;;;;;;;;4986587;28;20176;-71
2024/03/06 12:33:05;;;;;;;17.27;13.85;;;;;;;;;;4984751;28;20199;-70
2024/03/06 12:35:31;;;;;;;18.98;12.52;;;;;;;;;;4986034;28;20568;-69
2024/03/06 12:37:56;;;;;;;15.35;12.60;;;;;;;;;;4989834;28;20277;-69
2024/03/06 12:40:22;;;;;;;20.38;14.45;;;;;;;;;;4987847;28;20192;-69
2024/03/06 12:42:47;;;;;;;18.45;12.20;;;;;;;;;;4987038;28;20214;-69
2024/03/06 12:45:15;;;;;;;18.98;14.23;;;;;;;;;;4984344;28;20176;-69
2024/03/06 12:47:41;;;;;;;17.73;13.23;;;;;;;;;;4989414;28;20215;-70
2024/03/06 12:50:07;;;;;;;17.92;12.55;;;;;;;;;;4970942;28;20243;-69
2024/03/06 12:52:33;;;;;;;15.75;12.35;;;;;;;;;;4973419;28;20279;-69
2024/03/06 12:54:58;;;;;;;15.27;11.57;;;;;;;;;;4984355;28;20247;-70
2024/03/06 12:57:23;;;;;;;14.40;10.55;;;;;;;;;;4984987;28;20218;-70
2024/03/06 12:59:49;;;;;;;11.55;9.13;;;;;;;;;;4984962;28;20184;-70
2024/03/06 13:02:14;;;;;;;12.60;9.90;;;;;;;;;;4987139;28;20179;-70
2024/03/06 13:04:39;;;;;;;15.70;11.63;;;;;;;;;;4985934;28;20247;-70
2024/03/06 13:07:04;;;;;;;13.48;10.70;;;;;;;;;;4982004;28;20298;-70
2024/03/06 13:09:29;;;;;;;13.45;10.30;;;;;;;;;;4968973;28;20188;-70
2024/03/06 13:11:55;;;;;;;13.07;9.95;;;;;;;;;;4987199;28;20606;-70
2024/03/06 13:14:20;;;;;;;10.65;8.27;;;;;;;;;;4983717;28;20188;-70
2024/03/06 13:16:45;;;;;;;10.07;8.60;;;;;;;;;;4983726;28;20219;-70
2024/03/06 13:19:11;;;;;;;10.73;8.50;;;;;;;;;;4972366;28;20226;-70
2024/03/06 13:21:36;;;;;;;13.10;9.50;;;;;;;;;;4986075;28;20632;-70
2024/03/06 13:24:02;;;;;;;9.55;7.40;;;;;;;;;;4988934;28;20219;-70
2024/03/06 13:26:28;;;;;;;9.38;8.10;;;;;;;;;;4986684;28;20214;-70
2024/03/06 13:28:53;;;;;;;12.45;8.20;;;;;;;;;;4990462;28;20207;-70
2024/03/06 13:31:19;;;;;;;9.50;7.22;;;;;;;;;;4987937;28;20807;-70
2024/03/06 13:33:44;;;;;;;8.52;7.45;;;;;;;;;;4982827;28;20183;-71
2024/03/06 13:36:10;;;;;;;9.73;8.18;;;;;;;;;;4988155;28;20203;-70
2024/03/06 13:38:35;;;;;;;9.15;7.65;;;;;;;;;;4986576;28;20561;-70
2024/03/06 13:41:03;;;;;;;9.82;7.32;;;;;;;;;;4987906;28;20270;-70
2024/03/06 13:43:28;;;;;;;9.57;7.38;;;;;;;;;;4987671;28;20210;-70
2024/03/06 13:45:54;;;;;;;9.30;7.20;;;;;;;;;;4986557;28;20187;-70
2024/03/06 13:48:19;;;;;;;8.40;7.03;;;;;;;;;;4985593;28;20195;-71
2024/03/06 13:50:45;;;;;;;8.25;6.85;;;;;;;;;;4989110;28;20274;-70
2024/03/06 13:53:11;;;;;;;8.60;7.35;;;;;;;;;;4979579;28;20583;-70
2024/03/06 13:55:36;;;;;;;10.43;8.20;;;;;;;;;;4988383;28;20191;-69
2024/03/06 13:58:01;;;;;;;11.15;7.40;;;;;;;;;;4982275;28;20199;-69
2024/03/06 14:00:27;;;;;;;10.48;8.18;;;;;;;;;;4971704;28;20184;-68
2024/03/06 14:02:52;;;;;;;8.75;6.95;;;;;;;;;;4985060;28;20214;-69
2024/03/06 14:05:19;;;;;;;9.52;7.53;;;;;;;;;;4964707;28;20183;-69
2024/03/06 14:07:44;;;;;;;11.73;7.55;;;;;;;;;;4963654;28;20196;-70
2024/03/06 14:10:10;;;;;;;10.10;8.25;;;;;;;;;;4980471;28;20238;-70